Aviation Digital Data Service (ADDS)

Output produced by METARs form (0808 UTC 27 August 2016)
found at http://www.aviationweather.gov/adds/metars/
 
SEGU 270800Z VRB02KT CAVOK 23/18 Q1011 NOSIG RMK A2986
SEGU 270435Z 2706/2806 24010KT CAVOK 
     TEMPO 2710/2713 SCT020 SCT100 
     FM271300 16008KT 9999 FEW020 BKN100 
     FM280000 22014KT CAVOK TX31/2719Z TN21/2709Z
       
SEMT 270800Z 20003KT 9999 OVC026 22/20 Q1012
SEMT 270435Z 2706/2806 22006KT 9999 BKN026 
     FM271500 27012KT 9999 SCT026 
     BECMG 2718/2720 CAVOK 
     FM280000 22008KT 9999 SCT026 TX29/2720Z TN21/2710Z